createdAt,value
2024-04-16T00:00:26.859Z,5.40
2024-04-16T00:02:53.862Z,5.30
2024-04-16T00:05:20.975Z,5.30
2024-04-16T00:07:48.032Z,5.30
2024-04-16T00:10:15.117Z,5.40
2024-04-16T00:12:42.197Z,5.40
2024-04-16T00:15:27.025Z,5.40
2024-04-16T00:17:54.746Z,5.40
2024-04-16T00:20:21.819Z,5.40
2024-04-16T00:22:48.821Z,5.40
2024-04-16T00:25:16.087Z,5.40
2024-04-16T00:27:44.419Z,5.30
2024-04-16T00:30:11.556Z,5.30
2024-04-16T00:32:38.734Z,5.30
2024-04-16T00:35:06.299Z,5.40
2024-04-16T00:37:33.509Z,5.30
2024-04-16T00:40:00.761Z,5.30
2024-04-16T00:42:27.987Z,5.40
2024-04-16T00:44:55.079Z,5.40
2024-04-16T00:47:22.268Z,5.40
2024-04-16T00:49:49.673Z,5.40
2024-04-16T00:52:16.858Z,5.40
2024-04-16T00:54:44.972Z,5.50
2024-04-16T00:57:12.041Z,5.50
2024-04-16T00:59:40.796Z,5.40
2024-04-16T01:02:07.786Z,5.50
2024-04-16T01:04:35.076Z,5.50
2024-04-16T01:07:02.267Z,5.60
2024-04-16T01:09:29.390Z,5.60
2024-04-16T01:12:00.485Z,5.70
2024-04-16T01:14:27.737Z,5.60
2024-04-16T01:16:55.872Z,5.70
2024-04-16T01:19:23.706Z,5.80
2024-04-16T01:21:50.807Z,5.70
2024-04-16T01:24:18.054Z,5.80
2024-04-16T01:26:45.072Z,5.60
2024-04-16T01:29:12.020Z,5.70
2024-04-16T01:31:39.038Z,5.60
2024-04-16T01:34:06.173Z,5.60
2024-04-16T01:36:33.216Z,5.70
2024-04-16T01:39:00.310Z,5.60
2024-04-16T01:41:27.399Z,5.70
2024-04-16T01:43:54.333Z,5.70
2024-04-16T01:46:21.447Z,5.60
2024-04-16T01:48:48.522Z,5.70
2024-04-16T01:51:15.468Z,5.70
2024-04-16T01:53:42.657Z,5.70
2024-04-16T01:56:10.879Z,5.70
2024-04-16T01:58:37.907Z,5.60
2024-04-16T02:01:05.089Z,5.60
2024-04-16T02:03:32.294Z,5.50
2024-04-16T02:06:00.207Z,5.50
2024-04-16T02:08:27.201Z,5.50
2024-04-16T02:10:59.286Z,5.50
2024-04-16T02:13:27.119Z,5.40
2024-04-16T02:15:54.197Z,5.40
2024-04-16T02:18:21.532Z,5.40
2024-04-16T02:20:48.832Z,5.50
2024-04-16T02:23:16.008Z,5.40
2024-04-16T02:25:50.113Z,5.50
2024-04-16T02:28:17.257Z,5.50
2024-04-16T02:30:44.741Z,5.50
2024-04-16T02:33:14.357Z,5.40
2024-04-16T02:35:41.422Z,5.50
2024-04-16T02:38:08.436Z,5.50
2024-04-16T02:40:36.909Z,5.50
2024-04-16T02:43:04.907Z,5.40
2024-04-16T02:45:32.445Z,5.40
2024-04-16T02:47:59.534Z,5.40
2024-04-16T02:50:27.895Z,5.40
2024-04-16T02:52:55.057Z,5.30
2024-04-16T02:55:24.985Z,5.30
2024-04-16T02:57:51.989Z,5.30
2024-04-16T03:00:19.026Z,4.90
2024-04-16T03:02:46.164Z,4.70
2024-04-16T03:05:15.395Z,4.50
2024-04-16T03:07:45.159Z,4.30
2024-04-16T03:10:17.107Z,4.10
2024-04-16T03:12:45.033Z,4.10
2024-04-16T03:15:12.190Z,4.00
2024-04-16T03:17:39.350Z,4.00
2024-04-16T03:20:08.132Z,4.00
2024-04-16T03:22:35.170Z,3.90
2024-04-16T03:25:02.703Z,3.80
2024-04-16T03:27:29.684Z,3.70
2024-04-16T03:29:56.627Z,3.70
2024-04-16T03:32:23.716Z,3.70
2024-04-16T03:34:50.863Z,3.70
2024-04-16T03:37:17.860Z,3.70
2024-04-16T03:39:44.819Z,3.60
2024-04-16T03:42:11.759Z,3.60
2024-04-16T03:44:38.832Z,3.60
2024-04-16T03:47:06.068Z,3.60
2024-04-16T03:49:33.175Z,3.70
2024-04-16T03:52:00.383Z,3.70
2024-04-16T03:54:27.404Z,3.80
2024-04-16T03:56:54.681Z,3.80
2024-04-16T03:59:38.749Z,3.90
2024-04-16T04:02:07.377Z,3.90
2024-04-16T04:04:35.347Z,3.90
2024-04-16T04:07:02.592Z,3.90
2024-04-16T04:09:29.807Z,4.00
2024-04-16T04:11:56.781Z,4.00
2024-04-16T04:14:23.795Z,4.00
2024-04-16T04:16:50.802Z,4.10
2024-04-16T04:19:17.790Z,4.20
2024-04-16T04:21:44.802Z,4.10
2024-04-16T04:24:27.128Z,4.20
2024-04-16T04:26:59.900Z,4.40
2024-04-16T04:29:26.999Z,4.40
2024-04-16T04:31:54.008Z,4.50
2024-04-16T04:34:20.994Z,4.60
2024-04-16T04:36:48.001Z,3.80
2024-04-16T04:39:15.020Z,3.10
2024-04-16T04:41:41.994Z,2.60
2024-04-16T04:44:08.986Z,2.40
2024-04-16T04:46:36.206Z,2.30
2024-04-16T04:49:03.566Z,2.20
2024-04-16T04:51:30.689Z,2.20
2024-04-16T04:53:57.697Z,2.20
2024-04-16T04:56:24.779Z,2.30
2024-04-16T04:58:51.714Z,2.30
2024-04-16T05:01:18.797Z,2.40
2024-04-16T05:03:45.967Z,2.40
2024-04-16T05:06:13.015Z,2.50
2024-04-16T05:08:39.983Z,2.50
2024-04-16T05:11:07.178Z,2.70
2024-04-16T05:13:34.427Z,2.70
2024-04-16T05:16:03.011Z,2.90
2024-04-16T05:18:30.267Z,2.90
2024-04-16T05:20:59.627Z,3.00
2024-04-16T05:23:27.647Z,3.00
2024-04-16T05:25:56.167Z,3.10
2024-04-16T05:28:23.930Z,3.10
2024-04-16T05:30:51.182Z,3.20
2024-04-16T05:33:18.301Z,3.30
2024-04-16T05:35:45.306Z,3.40
2024-04-16T05:38:12.332Z,3.40
2024-04-16T05:40:39.700Z,3.40
2024-04-16T05:43:06.817Z,3.40
2024-04-16T05:45:33.883Z,3.40
2024-04-16T05:48:01.180Z,3.40
2024-04-16T05:50:28.245Z,3.40
2024-04-16T05:52:55.672Z,3.50
2024-04-16T05:55:22.947Z,3.50
2024-04-16T05:57:50.006Z,3.60
2024-04-16T06:00:17.092Z,3.70
2024-04-16T06:02:44.160Z,3.70
2024-04-16T06:05:11.255Z,3.70
2024-04-16T06:07:38.270Z,3.80
2024-04-16T06:10:05.526Z,4.00
2024-04-16T06:12:32.523Z,4.10
2024-04-16T06:15:02.566Z,4.30
2024-04-16T06:17:31.173Z,4.40
2024-04-16T06:19:58.128Z,4.40
2024-04-16T06:22:25.207Z,4.40
2024-04-16T06:24:52.530Z,4.50
2024-04-16T06:27:19.623Z,4.50
2024-04-16T06:29:46.618Z,4.60
2024-04-16T06:32:17.823Z,4.70
2024-04-16T06:34:44.913Z,4.80
2024-04-16T06:37:11.955Z,4.90
2024-04-16T06:39:38.918Z,4.90
2024-04-16T06:42:06.025Z,5.00
2024-04-16T06:44:33.263Z,5.10
2024-04-16T06:47:00.331Z,5.20
2024-04-16T06:49:28.299Z,5.30
2024-04-16T06:51:55.413Z,5.40
2024-04-16T06:54:22.386Z,5.60
2024-04-16T06:56:49.573Z,5.80
2024-04-16T06:59:16.567Z,5.90
2024-04-16T07:01:44.067Z,6.00
2024-04-16T07:04:12.506Z,6.00
2024-04-16T07:06:39.538Z,6.10
2024-04-16T07:09:08.441Z,6.20
2024-04-16T07:11:35.672Z,6.20
2024-04-16T07:14:02.643Z,6.30
2024-04-16T07:16:30.743Z,6.50
2024-04-16T07:18:57.828Z,6.60
2024-04-16T07:21:24.913Z,6.60
2024-04-16T07:23:51.919Z,6.60
2024-04-16T07:26:18.918Z,6.70
2024-04-16T07:28:45.992Z,6.80
2024-04-16T07:31:16.876Z,6.80
2024-04-16T07:33:46.356Z,7.00
2024-04-16T07:36:13.529Z,6.90
2024-04-16T07:38:40.703Z,6.90
2024-04-16T07:41:07.909Z,6.90
2024-04-16T07:43:36.101Z,6.90
2024-04-16T07:46:03.285Z,7.00
2024-04-16T07:48:30.334Z,7.00
2024-04-16T07:50:57.453Z,7.00
2024-04-16T07:53:24.456Z,7.00
2024-04-16T07:55:51.487Z,6.90
2024-04-16T07:58:18.533Z,7.00
2024-04-16T08:00:46.183Z,7.20
2024-04-16T08:03:13.261Z,7.20
2024-04-16T08:05:40.443Z,7.40
2024-04-16T08:08:10.990Z,7.60
2024-04-16T08:10:41.273Z,7.70
2024-04-16T08:13:08.385Z,7.60
2024-04-16T08:15:35.620Z,7.70
2024-04-16T08:18:02.729Z,7.70
2024-04-16T08:20:31.333Z,7.80
2024-04-16T08:22:58.566Z,7.80
2024-04-16T08:25:25.755Z,8.00
2024-04-16T08:27:52.864Z,8.10
2024-04-16T08:30:20.148Z,8.20
2024-04-16T08:32:47.331Z,8.10
2024-04-16T08:35:29.085Z,8.30
2024-04-16T08:37:56.440Z,8.20
2024-04-16T08:40:25.004Z,8.40
2024-04-16T08:42:53.643Z,8.50
2024-04-16T08:45:23.154Z,8.70
2024-04-16T08:47:52.532Z,8.50
2024-04-16T08:50:22.987Z,8.50
2024-04-16T08:52:56.434Z,8.20
2024-04-16T08:55:25.433Z,8.30
2024-04-16T08:57:52.929Z,8.40
2024-04-16T09:00:20.483Z,8.50
2024-04-16T09:02:48.066Z,8.30
2024-04-16T09:05:15.272Z,8.50
2024-04-16T09:07:42.412Z,8.60
2024-04-16T09:10:22.562Z,8.80
2024-04-16T09:12:50.331Z,8.90
2024-04-16T09:15:19.080Z,8.90
2024-04-16T09:17:58.161Z,8.80
2024-04-16T09:20:26.893Z,9.10
2024-04-16T09:22:55.260Z,9.00
2024-04-16T09:25:24.468Z,9.10
2024-04-16T09:27:53.440Z,9.20
2024-04-16T09:30:22.394Z,9.10
2024-04-16T09:32:59.231Z,9.20
2024-04-16T09:35:27.420Z,9.30
2024-04-16T09:38:19.696Z,9.20
2024-04-16T09:40:48.010Z,9.30
2024-04-16T09:43:18.057Z,9.50
2024-04-16T09:45:48.767Z,9.70
2024-04-16T09:48:18.329Z,9.70
2024-04-16T09:50:54.186Z,9.40
2024-04-16T09:53:24.503Z,9.40
2024-04-16T09:55:53.664Z,9.50
2024-04-16T09:58:22.382Z,9.70
2024-04-16T10:00:51.996Z,9.70
2024-04-16T10:03:22.438Z,10.00
2024-04-16T10:05:50.367Z,9.70
2024-04-16T10:08:18.073Z,9.90
2024-04-16T10:10:46.579Z,10.10
2024-04-16T10:13:14.689Z,10.00
2024-04-16T10:15:47.982Z,10.00
2024-04-16T10:18:15.798Z,9.90
2024-04-16T10:20:49.833Z,9.70
2024-04-16T10:23:17.936Z,9.70
2024-04-16T10:25:53.011Z,9.70
2024-04-16T10:28:28.305Z,9.80
2024-04-16T10:31:00.743Z,9.80
2024-04-16T10:33:28.631Z,9.90
2024-04-16T10:35:55.837Z,9.90
2024-04-16T10:38:24.878Z,9.90
2024-04-16T10:40:55.995Z,9.90
2024-04-16T10:43:25.164Z,10.10
2024-04-16T10:45:52.810Z,10.40
2024-04-16T10:48:21.909Z,10.30
2024-04-16T10:50:50.342Z,9.90
2024-04-16T10:53:19.963Z,10.10
2024-04-16T10:55:48.134Z,10.00
2024-04-16T10:58:22.055Z,10.30
2024-04-16T11:00:54.776Z,10.20
2024-04-16T11:03:23.517Z,10.60
2024-04-16T11:05:50.672Z,10.60
2024-04-16T11:08:17.768Z,10.50
2024-04-16T11:10:50.925Z,10.80
2024-04-16T11:13:19.157Z,10.90
2024-04-16T11:15:46.540Z,10.90
2024-04-16T11:18:13.706Z,11.00
2024-04-16T11:20:41.255Z,11.00
2024-04-16T11:23:08.377Z,11.10
2024-04-16T11:25:35.515Z,11.10
2024-04-16T11:28:02.486Z,11.20
2024-04-16T11:30:29.441Z,10.90
2024-04-16T11:32:56.461Z,10.70
2024-04-16T11:35:25.331Z,10.60
2024-04-16T11:37:52.805Z,10.40
2024-04-16T11:40:19.951Z,10.40
2024-04-16T11:42:46.992Z,10.20
2024-04-16T11:45:14.266Z,9.90
2024-04-16T11:47:41.465Z,9.80
2024-04-16T11:50:11.888Z,9.50
2024-04-16T11:52:39.388Z,8.90
2024-04-16T11:55:06.814Z,8.70
2024-04-16T11:57:33.836Z,8.40
2024-04-16T12:00:01.311Z,8.30
2024-04-16T12:02:39.339Z,8.40
2024-04-16T12:05:07.107Z,8.60
2024-04-16T12:07:34.930Z,8.30
2024-04-16T12:10:01.993Z,8.40
2024-04-16T12:12:28.985Z,8.30
2024-04-16T12:14:55.973Z,8.50
2024-04-16T12:17:23.527Z,8.50
2024-04-16T12:19:50.690Z,8.50
2024-04-16T12:22:17.957Z,8.70
2024-04-16T12:24:44.992Z,8.80
2024-04-16T12:27:11.962Z,8.80
2024-04-16T12:29:38.911Z,8.70
2024-04-16T12:32:06.695Z,8.80
2024-04-16T12:34:33.769Z,9.00
2024-04-16T12:37:00.779Z,9.20
2024-04-16T12:39:27.769Z,9.20
2024-04-16T12:42:00.320Z,9.20
2024-04-16T12:44:27.943Z,9.80
2024-04-16T12:46:55.070Z,10.00
2024-04-16T12:49:24.686Z,10.10
2024-04-16T12:51:52.921Z,9.70
2024-04-16T12:54:20.829Z,9.80
2024-04-16T12:56:49.937Z,10.10
2024-04-16T12:59:18.295Z,10.50
2024-04-16T13:01:45.620Z,10.50
2024-04-16T13:04:12.656Z,10.00
2024-04-16T13:06:39.729Z,10.10
2024-04-16T13:09:06.702Z,10.00
2024-04-16T13:11:33.949Z,10.00
2024-04-16T13:14:01.001Z,10.20
2024-04-16T13:16:28.079Z,10.30
2024-04-16T13:18:55.133Z,10.40
2024-04-16T13:21:22.129Z,10.60
2024-04-16T13:23:49.172Z,10.50
2024-04-16T13:26:16.228Z,10.30
2024-04-16T13:28:44.462Z,10.30
2024-04-16T13:31:11.556Z,10.40
2024-04-16T13:33:38.805Z,10.50
2024-04-16T13:36:06.000Z,10.30
2024-04-16T13:38:33.595Z,10.30
2024-04-16T13:41:01.255Z,10.90
2024-04-16T13:43:28.398Z,11.40
2024-04-16T13:45:55.434Z,10.80
2024-04-16T13:48:22.499Z,10.80
2024-04-16T13:50:54.677Z,10.60
2024-04-16T13:53:24.698Z,11.40
2024-04-16T13:55:52.633Z,12.10
2024-04-16T13:58:20.068Z,11.50
2024-04-16T14:00:47.328Z,11.90
2024-04-16T14:03:16.450Z,12.40
2024-04-16T14:05:44.201Z,12.50
2024-04-16T14:08:12.039Z,12.00
2024-04-16T14:10:39.330Z,11.50
2024-04-16T14:13:06.469Z,11.70
2024-04-16T14:15:34.604Z,11.40
2024-04-16T14:18:01.670Z,11.40
2024-04-16T14:20:28.660Z,11.30
2024-04-16T14:22:55.755Z,12.00
2024-04-16T14:25:23.211Z,13.50
2024-04-16T14:27:50.230Z,14.40
2024-04-16T14:30:17.320Z,15.70
2024-04-16T14:32:44.402Z,14.90
2024-04-16T14:35:11.425Z,13.70
2024-04-16T14:37:39.656Z,14.10
2024-04-16T14:40:07.680Z,15.20
2024-04-16T14:42:34.774Z,16.50
2024-04-16T14:45:01.867Z,16.70
2024-04-16T14:47:29.036Z,16.30
2024-04-16T14:49:56.204Z,14.60
2024-04-16T14:52:23.725Z,13.50
2024-04-16T14:54:50.706Z,12.70
2024-04-16T14:57:22.303Z,12.40
2024-04-16T14:59:49.817Z,12.30
2024-04-16T15:02:16.885Z,12.40
2024-04-16T15:04:43.967Z,12.30
2024-04-16T15:07:11.118Z,12.20
2024-04-16T15:09:39.816Z,12.40
2024-04-16T15:12:07.044Z,12.40
2024-04-16T15:14:39.394Z,12.40
2024-04-16T15:17:06.625Z,12.20
2024-04-16T15:19:34.416Z,11.80
2024-04-16T15:22:01.391Z,11.30
2024-04-16T15:24:28.359Z,10.90
2024-04-16T15:26:55.411Z,10.60
2024-04-16T15:29:22.358Z,10.60
2024-04-16T15:31:49.404Z,10.70
2024-04-16T15:34:16.454Z,10.90
2024-04-16T15:36:43.487Z,11.00
2024-04-16T15:39:11.157Z,10.80
2024-04-16T15:41:39.139Z,10.60
2024-04-16T15:44:06.326Z,10.50
2024-04-16T15:46:33.396Z,10.70
2024-04-16T15:49:00.547Z,10.70
2024-04-16T15:51:27.652Z,10.70
2024-04-16T15:53:54.729Z,10.90
2024-04-16T15:56:21.747Z,10.90
2024-04-16T15:58:48.954Z,11.20
2024-04-16T16:01:16.197Z,11.40
2024-04-16T16:03:43.299Z,11.10
2024-04-16T16:06:10.348Z,10.80
2024-04-16T16:08:37.363Z,10.80
2024-04-16T16:11:04.604Z,10.70
2024-04-16T16:13:31.658Z,10.50
2024-04-16T16:15:58.736Z,10.40
2024-04-16T16:18:25.815Z,10.30
2024-04-16T16:20:52.996Z,10.20
2024-04-16T16:23:20.346Z,10.10
2024-04-16T16:25:49.027Z,10.00
2024-04-16T16:28:16.133Z,8.90
2024-04-16T16:30:43.497Z,7.50
2024-04-16T16:33:10.556Z,7.00
2024-04-16T16:35:37.999Z,6.60
2024-04-16T16:38:05.040Z,5.80
2024-04-16T16:40:31.994Z,5.40
2024-04-16T16:42:58.965Z,5.30
2024-04-16T16:45:25.931Z,5.20
2024-04-16T16:47:56.953Z,5.10
2024-04-16T16:50:26.959Z,5.10
2024-04-16T16:52:54.098Z,5.10
2024-04-16T16:55:21.197Z,5.20
2024-04-16T16:57:48.477Z,5.20
2024-04-16T17:00:15.574Z,5.20
2024-04-16T17:02:42.654Z,5.30
2024-04-16T17:05:09.650Z,5.30
2024-04-16T17:07:36.720Z,5.30
2024-04-16T17:10:04.149Z,5.40
2024-04-16T17:12:32.087Z,5.40
2024-04-16T17:14:59.095Z,5.50
2024-04-16T17:17:26.074Z,5.50
2024-04-16T17:19:53.145Z,5.50
2024-04-16T17:22:20.205Z,5.60
2024-04-16T17:24:49.923Z,5.60
2024-04-16T17:27:17.855Z,5.60
2024-04-16T17:29:46.263Z,5.60
2024-04-16T17:32:14.244Z,5.60
2024-04-16T17:34:41.821Z,5.60
2024-04-16T17:37:08.826Z,5.60
2024-04-16T17:39:35.898Z,5.60
2024-04-16T17:42:03.594Z,5.60
2024-04-16T17:44:31.073Z,5.60
2024-04-16T17:46:58.089Z,5.60
2024-04-16T17:49:25.145Z,5.70
2024-04-16T17:51:53.705Z,5.70
2024-04-16T17:54:20.719Z,5.70
2024-04-16T17:56:47.922Z,5.70
2024-04-16T17:59:17.816Z,5.80
2024-04-16T18:01:45.075Z,5.80
2024-04-16T18:04:14.216Z,5.80
2024-04-16T18:06:43.158Z,5.80
2024-04-16T18:09:11.143Z,5.90
2024-04-16T18:11:38.283Z,5.90
2024-04-16T18:14:10.944Z,5.90
2024-04-16T18:16:39.582Z,5.90
2024-04-16T18:19:06.614Z,6.00
2024-04-16T18:21:36.430Z,6.00
2024-04-16T18:24:03.531Z,6.00
2024-04-16T18:26:30.521Z,6.00
2024-04-16T18:28:57.692Z,6.00
2024-04-16T18:31:26.388Z,6.00
2024-04-16T18:33:53.597Z,6.00
2024-04-16T18:36:20.571Z,6.00
2024-04-16T18:38:51.913Z,6.00
2024-04-16T18:41:19.098Z,6.00
2024-04-16T18:43:46.289Z,6.00
2024-04-16T18:46:13.374Z,6.10
2024-04-16T18:48:40.637Z,6.20
2024-04-16T18:51:07.776Z,6.20
2024-04-16T18:53:35.048Z,6.30
2024-04-16T18:56:03.837Z,6.30
2024-04-16T18:58:31.318Z,6.30
2024-04-16T19:00:58.339Z,6.30
2024-04-16T19:03:26.498Z,6.40
2024-04-16T19:05:53.982Z,6.40
2024-04-16T19:08:21.092Z,6.40
2024-04-16T19:10:48.204Z,6.40
2024-04-16T19:13:15.332Z,6.40
2024-04-16T19:15:42.425Z,6.30
2024-04-16T19:18:10.391Z,6.40
2024-04-16T19:20:37.491Z,6.40
2024-04-16T19:23:04.753Z,6.40
2024-04-16T19:25:31.860Z,6.50
2024-04-16T19:27:58.848Z,6.50
2024-04-16T19:30:25.852Z,6.50
2024-04-16T19:32:53.306Z,6.50
2024-04-16T19:35:20.350Z,6.60
2024-04-16T19:37:47.429Z,6.60
2024-04-16T19:40:14.632Z,6.60
2024-04-16T19:42:41.885Z,6.50
2024-04-16T19:45:08.879Z,6.60
2024-04-16T19:47:35.928Z,6.60
2024-04-16T19:50:02.962Z,6.70
2024-04-16T19:52:30.033Z,6.70
2024-04-16T19:54:57.071Z,6.70
2024-04-16T19:57:24.100Z,6.70
2024-04-16T19:59:51.114Z,6.60
2024-04-16T20:02:18.344Z,6.60
2024-04-16T20:04:47.697Z,6.60
2024-04-16T20:07:15.112Z,6.60
2024-04-16T20:09:42.147Z,6.50
2024-04-16T20:12:09.458Z,6.50
2024-04-16T20:14:38.122Z,6.40
2024-04-16T20:17:05.195Z,6.40
2024-04-16T20:19:35.538Z,6.40
2024-04-16T20:22:03.911Z,6.30
2024-04-16T20:24:31.317Z,6.40
2024-04-16T20:26:58.248Z,6.40
2024-04-16T20:29:25.242Z,6.30
2024-04-16T20:31:54.768Z,6.30
2024-04-16T20:34:23.408Z,6.30
2024-04-16T20:36:51.357Z,6.30
2024-04-16T20:39:18.459Z,6.30
2024-04-16T20:41:46.132Z,6.30
2024-04-16T20:44:13.166Z,6.30
2024-04-16T20:46:40.157Z,6.40
2024-04-16T20:49:07.155Z,6.40
2024-04-16T20:51:34.110Z,6.50
2024-04-16T20:54:01.058Z,6.40
2024-04-16T20:56:30.249Z,6.50
2024-04-16T20:58:57.295Z,6.50
2024-04-16T21:01:24.400Z,6.50
2024-04-16T21:03:51.478Z,6.40
2024-04-16T21:06:18.462Z,6.40
2024-04-16T21:08:45.448Z,6.40
2024-04-16T21:11:12.553Z,6.40
2024-04-16T21:13:40.044Z,6.40
2024-04-16T21:16:07.243Z,6.40
2024-04-16T21:18:34.475Z,6.40
2024-04-16T21:21:01.623Z,6.40
2024-04-16T21:23:28.665Z,6.40
2024-04-16T21:25:55.633Z,6.40
2024-04-16T21:28:22.716Z,6.30
2024-04-16T21:30:49.700Z,6.30
2024-04-16T21:33:16.750Z,6.20
2024-04-16T21:35:44.534Z,6.20
2024-04-16T21:38:11.641Z,6.20
2024-04-16T21:40:38.753Z,6.10
2024-04-16T21:43:06.124Z,6.10
2024-04-16T21:45:34.091Z,6.10
2024-04-16T21:48:01.192Z,6.00
2024-04-16T21:50:28.183Z,6.00
2024-04-16T21:52:55.171Z,5.90
2024-04-16T21:55:22.248Z,5.90
2024-04-16T21:57:49.211Z,5.80
2024-04-16T22:00:17.010Z,5.70
2024-04-16T22:02:44.045Z,5.60
2024-04-16T22:05:11.050Z,5.60
2024-04-16T22:07:38.219Z,5.60
2024-04-16T22:10:05.942Z,5.50
2024-04-16T22:12:33.000Z,5.40
2024-04-16T22:15:00.044Z,5.40
2024-04-16T22:17:27.101Z,5.30
2024-04-16T22:19:54.345Z,5.20
2024-04-16T22:22:21.346Z,5.30
2024-04-16T22:24:49.091Z,5.20
2024-04-16T22:27:16.121Z,5.20
2024-04-16T22:29:43.093Z,5.10
2024-04-16T22:32:10.139Z,5.10
2024-04-16T22:34:37.150Z,5.10
2024-04-16T22:37:04.313Z,5.10
2024-04-16T22:39:31.261Z,5.00
2024-04-16T22:41:58.232Z,5.00
2024-04-16T22:44:25.169Z,5.00
2024-04-16T22:46:52.385Z,4.90
2024-04-16T22:49:19.477Z,4.90
2024-04-16T22:51:46.429Z,4.80
2024-04-16T22:54:13.377Z,4.80
2024-04-16T22:56:40.283Z,4.80
2024-04-16T22:59:07.293Z,4.70
2024-04-16T23:01:34.303Z,4.70
2024-04-16T23:04:01.313Z,4.70
2024-04-16T23:06:28.296Z,4.60
2024-04-16T23:08:55.246Z,4.60
2024-04-16T23:11:22.410Z,4.60
2024-04-16T23:13:49.479Z,4.70
2024-04-16T23:16:16.591Z,4.70
2024-04-16T23:18:43.561Z,4.70
2024-04-16T23:21:10.532Z,4.70
2024-04-16T23:23:37.491Z,4.70
2024-04-16T23:26:04.660Z,4.70
2024-04-16T23:28:31.641Z,4.70
2024-04-16T23:30:58.835Z,4.60
2024-04-16T23:33:25.825Z,4.60
2024-04-16T23:35:52.795Z,4.50
2024-04-16T23:38:19.823Z,4.50
2024-04-16T23:40:50.004Z,4.40
2024-04-16T23:43:17.012Z,4.40
2024-04-16T23:45:44.022Z,4.40
2024-04-16T23:48:11.138Z,4.40
2024-04-16T23:50:38.709Z,4.40
2024-04-16T23:53:05.826Z,4.40
2024-04-16T23:55:32.883Z,4.30
2024-04-16T23:57:59.871Z,4.40
